PST,Max TemperatureF,Mean TemperatureF,Min TemperatureF,Max Dew PointF,MeanDew PointF,Min DewpointF,Max Humidity, Mean Humidity, Min Humidity, Max Sea Level PressureIn, Mean Sea Level PressureIn, Min Sea Level PressureIn, Max VisibilityMiles, Mean VisibilityMiles, Min VisibilityMiles, Max Wind SpeedMPH, Mean Wind SpeedMPH, Max Gust SpeedMPH,PrecipitationIn, CloudCover, Events, WindDirDegrees
2013-1-1,57,46,35,43,37,32,93,75,51,30.25,30.19,30.12,10,10,10,9,4,,0.00,4,,89
2013-1-2,59,46,32,39,34,28,93,71,39,30.17,30.12,30.07,10,10,10,14,6,,0.00,0,,105
2013-1-3,62,46,30,43,33,27,93,69,30,30.21,30.15,30.09,10,10,10,12,5,,0.00,0,,112
2013-1-4,68,50,32,43,32,16,87,64,13,30.28,30.22,30.18,10,10,10,10,5,,0.00,0,,101
2013-1-5,60,46,32,48,39,28,94,78,45,30.32,30.24,30.18,10,9,3,15,4,,0.15,3,,103
2013-1-6,55,48,42,46,44,39,93,82,63,30.19,30.15,30.10,10,10,5,20,5,29,0.43,5,,306
2013-1-7,60,50,39,46,40,36,87,68,51,30.21,30.14,30.09,10,10,10,16,8,23,0.00,0,,305
2013-1-8,66,50,35,48,39,32,93,73,39,30.14,30.10,30.07,10,10,10,9,4,,0.00,0,,104
2013-1-9,59,49,39,52,43,36,88,78,58,30.12,30.08,30.05,10,10,4,15,5,22,0.00,2,,311
2013-1-10,53,46,37,43,35,30,76,62,47,30.19,30.10,30.06,10,10,10,24,9,32,0.00,2,,322
2013-1-11,55,42,30,39,32,27,87,67,38,30.24,30.18,30.12,10,10,8,16,4,22,0.01,1,,322
2013-1-12,55,42,30,39,31,25,93,69,31,30.22,30.15,30.12,10,10,10,15,3,21,0.00,1,,336
2013-1-13,55,42,28,32,27,18,87,61,24,30.21,30.14,30.10,10,10,10,15,4,18,0.00,0,,15
2013-1-14,55,40,26,28,25,21,80,61,35,30.36,30.29,30.17,10,10,10,13,5,,0.00,0,,98
2013-1-15,57,42,28,32,27,25,86,63,29,30.47,30.41,30.37,10,10,10,14,6,,0.00,0,,107
2013-1-16,50,39,30,32,27,27,86,77,50,30.39,30.29,30.19,10,10,10,13,5,,0.00,0,,96
2013-1-17,,,,,,,,,,30.20,30.15,30.10,10,10,10,10,6,,0.00,0,,104
2013-1-18,73,56,39,32,28,23,70,43,15,30.17,30.12,30.09,10,10,2,12,8,,0.00,0,,93
2013-1-19,75,55,35,30,27,21,70,46,13,30.20,30.14,30.10,10,10,10,12,8,,0.00,0,,94
2013-1-20,77,56,35,32,25,21,70,43,13,30.16,30.12,30.05,10,10,10,12,7,,0.00,0,,95
2013-1-21,78,56,35,30,27,21,65,43,12,30.13,30.07,30.02,10,10,10,10,7,,0.00,0,,106
2013-1-22,78,56,35,39,27,18,65,41,10,30.09,30.06,30.02,10,10,9,13,7,16,0.00,0,,117
2013-1-23,71,58,46,48,36,21,88,54,15,30.09,30.04,29.99,10,10,7,12,4,24,0.00,4,,123
2013-1-24,62,58,55,55,52,43,94,80,59,30.15,30.09,30.04,10,10,3,17,7,26,0.05,7,,140
2013-1-25,66,60,53,57,54,52,94,89,73,30.14,30.07,30.00,10,9,1,10,1,,0.06,8,,230
2013-1-26,60,54,48,57,49,41,100,84,67,30.06,29.99,29.96,10,6,0,17,4,25,0.00,6,,280
2013-1-27,57,50,42,43,39,34,81,64,44,30.14,30.09,30.05,10,10,10,22,10,29,0.00,1,,323
2013-1-28,59,46,33,43,36,28,93,69,36,30.27,30.20,30.14,10,10,9,18,5,24,0.00,0,,329
2013-1-29,62,50,39,45,38,32,87,66,39,30.29,30.24,30.19,10,10,10,20,7,22,0.00,0,,313
2013-1-30,66,50,35,46,37,30,87,67,32,30.34,30.28,30.23,10,10,10,16,4,18,0.00,0,,112
2013-1-31,73,55,37,46,39,34,93,71,29,30.27,30.20,30.15,10,10,10,13,6,,0.00,0,,99